createdAt,value
2023-03-18T00:01:04.418Z,1.47
2023-03-18T00:03:33.915Z,0.97
2023-03-18T00:06:13.992Z,0.83
2023-03-18T00:08:42.900Z,0.77
2023-03-18T00:11:13.126Z,0.50
2023-03-18T00:13:42.530Z,0.93
2023-03-18T00:16:12.134Z,2.80
2023-03-18T00:18:40.543Z,0.70
2023-03-18T00:21:10.794Z,0.67
2023-03-18T00:23:38.913Z,1.47
2023-03-18T00:26:06.984Z,0.93
2023-03-18T00:28:39.484Z,0.80
2023-03-18T00:31:10.907Z,1.17
2023-03-18T00:33:40.794Z,0.83
2023-03-18T00:36:13.809Z,0.93
2023-03-18T00:38:47.176Z,0.87
2023-03-18T00:41:16.226Z,0.20
2023-03-18T00:43:52.880Z,0.77
2023-03-18T00:46:25.583Z,1.23
2023-03-18T00:48:56.474Z,0.63
2023-03-18T00:51:26.958Z,0.57
2023-03-18T00:53:57.310Z,0.80
2023-03-18T00:56:27.784Z,0.40
2023-03-18T00:58:55.432Z,0.30
2023-03-18T01:01:24.412Z,0.40
2023-03-18T01:03:52.733Z,0.17
2023-03-18T01:06:25.101Z,1.17
2023-03-18T01:08:53.909Z,0.80
2023-03-18T01:11:22.129Z,0.40
2023-03-18T01:13:50.062Z,0.67
2023-03-18T01:16:17.947Z,0.77
2023-03-18T01:18:45.779Z,0.73
2023-03-18T01:21:16.980Z,0.40
2023-03-18T01:23:49.804Z,1.03
2023-03-18T01:26:19.753Z,0.60
2023-03-18T01:28:48.127Z,0.23
2023-03-18T01:31:15.651Z,0.77
2023-03-18T01:33:47.273Z,0.83
2023-03-18T01:36:15.677Z,0.43
2023-03-18T01:38:43.027Z,0.40
2023-03-18T01:41:11.426Z,0.93
2023-03-18T01:43:42.860Z,0.83
2023-03-18T01:46:41.396Z,0.50
2023-03-18T01:49:19.535Z,1.27
2023-03-18T01:51:58.645Z,1.07
2023-03-18T01:54:28.752Z,0.20
2023-03-18T01:56:57.814Z,0.93
2023-03-18T01:59:31.799Z,0.57
2023-03-18T02:02:09.232Z,0.43
2023-03-18T02:05:06.735Z,0.50
2023-03-18T02:07:36.331Z,0.67
2023-03-18T02:10:14.884Z,1.17
2023-03-18T02:12:51.807Z,1.70
2023-03-18T02:15:23.681Z,1.90
2023-03-18T02:18:09.385Z,1.03
2023-03-18T02:20:59.031Z,1.07
2023-03-18T02:24:01.371Z,1.70
2023-03-18T02:27:18.516Z,0.53
2023-03-18T02:29:48.473Z,1.07
2023-03-18T02:32:19.211Z,0.77
2023-03-18T02:34:46.736Z,0.50
2023-03-18T02:37:14.079Z,0.83
2023-03-18T02:39:41.884Z,0.17
2023-03-18T02:42:17.008Z,1.13
2023-03-18T02:44:47.197Z,0.87
2023-03-18T02:47:22.026Z,0.63
2023-03-18T02:49:50.872Z,0.17
2023-03-18T02:52:18.120Z,1.10
2023-03-18T02:54:45.686Z,0.43
2023-03-18T02:57:12.792Z,0.30
2023-03-18T02:59:39.986Z,2.50
2023-03-18T03:02:07.205Z,0.93
2023-03-18T03:04:35.361Z,0.77
2023-03-18T03:07:02.540Z,1.20
2023-03-18T03:09:29.651Z,0.10
2023-03-18T03:11:56.964Z,0.67
2023-03-18T03:14:24.089Z,0.23
2023-03-18T03:16:52.022Z,0.50
2023-03-18T03:19:19.190Z,0.37
2023-03-18T03:21:46.775Z,0.23
2023-03-18T03:24:14.043Z,1.63
2023-03-18T03:26:41.306Z,0.73
2023-03-18T03:29:08.744Z,0.50
2023-03-18T03:31:36.849Z,0.27
2023-03-18T03:34:04.339Z,0.40
2023-03-18T03:36:31.728Z,0.07
2023-03-18T03:38:58.961Z,0.80
2023-03-18T03:41:26.280Z,0.60
2023-03-18T03:43:53.605Z,0.30
2023-03-18T03:46:20.952Z,0.20
2023-03-18T03:48:48.397Z,0.40
2023-03-18T03:51:15.813Z,0.97
2023-03-18T03:53:43.866Z,0.30
2023-03-18T03:56:11.533Z,0.63
2023-03-18T03:58:38.834Z,0.43
2023-03-18T04:01:06.699Z,0.40
2023-03-18T04:03:34.213Z,0.33
2023-03-18T04:06:01.725Z,0.40
2023-03-18T04:08:28.903Z,0.10
2023-03-18T04:10:57.029Z,0.57
2023-03-18T04:13:24.928Z,0.53
2023-03-18T04:15:52.309Z,0.40
2023-03-18T04:18:19.577Z,0.27
2023-03-18T04:20:48.042Z,0.77
2023-03-18T04:23:15.669Z,0.20
2023-03-18T04:25:43.040Z,0.50
2023-03-18T04:28:10.199Z,0.30
2023-03-18T04:30:38.055Z,0.30
2023-03-18T04:33:05.369Z,0.33
2023-03-18T04:35:32.994Z,0.90
2023-03-18T04:38:00.602Z,0.30
2023-03-18T04:40:28.866Z,0.43
2023-03-18T04:42:55.949Z,0.43
2023-03-18T04:45:23.214Z,0.73
2023-03-18T04:47:50.362Z,0.53
2023-03-18T04:50:17.834Z,0.47
2023-03-18T04:52:45.276Z,0.10
2023-03-18T04:55:14.608Z,0.27
2023-03-18T04:57:42.859Z,0.33
2023-03-18T05:00:17.525Z,0.47
2023-03-18T05:02:45.527Z,0.83
2023-03-18T05:05:12.984Z,0.33
2023-03-18T05:07:40.658Z,0.37
2023-03-18T05:10:09.731Z,0.30
2023-03-18T05:12:37.300Z,0.93
2023-03-18T05:15:06.836Z,0.43
2023-03-18T05:17:34.074Z,0.80
2023-03-18T05:20:01.774Z,0.30
2023-03-18T05:22:28.952Z,0.77
2023-03-18T05:24:56.213Z,0.63
2023-03-18T05:27:23.954Z,0.00
2023-03-18T05:29:51.297Z,1.30
2023-03-18T05:32:18.524Z,0.73
2023-03-18T05:34:45.979Z,0.60
2023-03-18T05:37:15.730Z,1.03
2023-03-18T05:39:45.002Z,0.50
2023-03-18T05:42:15.313Z,1.77
2023-03-18T05:44:43.066Z,1.13
2023-03-18T05:47:11.182Z,1.40
2023-03-18T05:49:38.482Z,1.00
2023-03-18T05:52:06.318Z,2.10
2023-03-18T05:54:33.727Z,1.73
2023-03-18T05:57:00.850Z,1.00
2023-03-18T05:59:28.141Z,1.20
2023-03-18T06:01:55.222Z,1.50
2023-03-18T06:04:22.711Z,1.43
2023-03-18T06:06:51.612Z,1.63
2023-03-18T06:09:22.517Z,2.17
2023-03-18T06:11:49.858Z,1.17
2023-03-18T06:14:17.565Z,2.13
2023-03-18T06:16:45.756Z,1.90
2023-03-18T06:19:13.357Z,1.43
2023-03-18T06:21:41.716Z,1.70
2023-03-18T06:24:09.746Z,1.70
2023-03-18T06:26:37.034Z,1.43
2023-03-18T06:29:05.427Z,1.50
2023-03-18T06:31:33.232Z,1.97
2023-03-18T06:34:01.531Z,1.97
2023-03-18T06:36:29.081Z,1.67
2023-03-18T06:39:01.211Z,1.27
2023-03-18T06:41:28.672Z,1.47
2023-03-18T06:43:55.875Z,1.40
2023-03-18T06:46:24.091Z,2.23
2023-03-18T06:48:51.523Z,2.33
2023-03-18T06:51:18.786Z,1.30
2023-03-18T06:53:48.701Z,1.87
2023-03-18T06:56:16.622Z,2.40
2023-03-18T06:58:44.764Z,1.47
2023-03-18T07:01:15.557Z,1.80
2023-03-18T07:03:42.850Z,1.70
2023-03-18T07:06:10.532Z,2.23
2023-03-18T07:08:40.826Z,1.87
2023-03-18T07:11:08.326Z,1.70
2023-03-18T07:13:40.957Z,1.37
2023-03-18T07:16:16.021Z,1.40
2023-03-18T07:18:43.386Z,1.50
2023-03-18T07:21:11.639Z,1.97
2023-03-18T07:23:39.233Z,1.13
2023-03-18T07:26:10.585Z,1.37
2023-03-18T07:28:38.192Z,1.83
2023-03-18T07:31:05.585Z,1.27
2023-03-18T07:33:33.382Z,1.27
2023-03-18T07:36:04.195Z,1.80
2023-03-18T07:38:31.958Z,2.03
2023-03-18T07:41:01.739Z,1.13
2023-03-18T07:43:31.384Z,1.60
2023-03-18T07:46:03.023Z,1.20
2023-03-18T07:48:34.321Z,1.80
2023-03-18T07:51:02.208Z,1.30
2023-03-18T07:53:30.886Z,1.30
2023-03-18T07:55:58.368Z,1.93
2023-03-18T07:58:25.964Z,1.10
2023-03-18T08:00:56.186Z,1.03
2023-03-18T08:03:23.518Z,1.83
2023-03-18T08:05:51.362Z,1.03
2023-03-18T08:08:18.907Z,1.53
2023-03-18T08:10:48.744Z,1.60
2023-03-18T08:13:17.053Z,1.67
2023-03-18T08:15:44.649Z,1.70
2023-03-18T08:18:12.440Z,1.80
2023-03-18T08:20:42.725Z,1.87
2023-03-18T08:23:10.046Z,1.53
2023-03-18T08:25:38.296Z,1.33
2023-03-18T08:28:07.734Z,1.57
2023-03-18T08:30:35.741Z,1.63
2023-03-18T08:33:03.153Z,1.70
2023-03-18T08:35:30.995Z,1.50
2023-03-18T08:37:58.618Z,1.77
2023-03-18T08:40:26.510Z,1.97
2023-03-18T08:42:54.189Z,1.30
2023-03-18T08:45:21.441Z,1.60
2023-03-18T08:47:48.741Z,1.93
2023-03-18T08:50:17.560Z,1.60
2023-03-18T08:52:47.892Z,1.23
2023-03-18T08:55:16.407Z,1.70
2023-03-18T08:57:43.762Z,1.40
2023-03-18T09:00:12.016Z,1.40
2023-03-18T09:02:39.418Z,1.23
2023-03-18T09:05:07.366Z,2.10
2023-03-18T09:07:34.713Z,1.90
2023-03-18T09:10:02.211Z,1.50
2023-03-18T09:12:30.018Z,1.43
2023-03-18T09:14:57.665Z,1.60
2023-03-18T09:17:35.290Z,2.00
2023-03-18T09:20:17.370Z,1.43
2023-03-18T09:22:46.522Z,1.80
2023-03-18T09:25:13.912Z,1.73
2023-03-18T09:27:41.291Z,1.63
2023-03-18T09:30:10.595Z,1.73
2023-03-18T09:32:38.104Z,1.30
2023-03-18T09:35:06.833Z,1.77
2023-03-18T09:37:34.051Z,1.67
2023-03-18T09:40:01.472Z,2.20
2023-03-18T09:43:03.882Z,3.97
2023-03-18T09:46:05.212Z,2.20
2023-03-18T09:49:02.990Z,1.60
2023-03-18T09:51:49.584Z,2.07
2023-03-18T09:54:39.322Z,1.60
2023-03-18T09:57:16.497Z,1.47
2023-03-18T09:59:51.994Z,1.87
2023-03-18T10:02:46.941Z,1.67
2023-03-18T10:05:26.803Z,1.60
2023-03-18T10:08:04.915Z,1.90
2023-03-18T10:10:41.675Z,1.63
2023-03-18T10:13:22.479Z,1.53
2023-03-18T10:15:57.140Z,1.77
2023-03-18T10:18:34.844Z,1.40
2023-03-18T10:21:30.063Z,2.13
2023-03-18T10:24:40.776Z,2.20
2023-03-18T10:27:14.207Z,2.00
2023-03-18T10:30:22.399Z,1.50
2023-03-18T10:33:23.542Z,1.73
2023-03-18T10:36:19.453Z,1.53
2023-03-18T10:38:58.148Z,1.60
2023-03-18T10:41:37.762Z,1.40
2023-03-18T10:44:43.809Z,1.73
2023-03-18T10:47:28.266Z,1.53
2023-03-18T10:50:19.038Z,1.80
2023-03-18T10:53:05.246Z,1.97
2023-03-18T10:55:51.788Z,1.53
2023-03-18T10:58:22.206Z,1.37
2023-03-18T11:00:51.336Z,1.87
2023-03-18T11:03:32.058Z,1.73
2023-03-18T11:06:26.627Z,1.63
2023-03-18T11:09:30.009Z,1.67
2023-03-18T11:12:06.923Z,1.77
2023-03-18T11:14:38.049Z,2.20
2023-03-18T11:17:18.224Z,1.90
2023-03-18T11:20:24.375Z,1.30
2023-03-18T11:22:55.822Z,1.97
2023-03-18T11:25:30.309Z,1.60
2023-03-18T11:28:04.348Z,2.53
2023-03-18T11:30:47.154Z,1.87
2023-03-18T11:33:18.050Z,1.70
2023-03-18T11:36:06.191Z,1.40
2023-03-18T11:38:39.070Z,1.53
2023-03-18T11:41:26.277Z,1.50
2023-03-18T11:44:08.710Z,1.27
2023-03-18T11:46:51.728Z,1.30
2023-03-18T11:49:25.114Z,1.40
2023-03-18T11:52:29.663Z,1.53
2023-03-18T11:55:21.847Z,1.50
2023-03-18T11:58:23.732Z,1.80
2023-03-18T12:01:12.159Z,1.43
2023-03-18T12:04:10.230Z,1.80
2023-03-18T12:07:13.213Z,2.03
2023-03-18T12:10:05.610Z,1.77
2023-03-18T12:12:59.989Z,2.63
2023-03-18T12:15:58.209Z,2.00
2023-03-18T12:19:07.559Z,1.93
2023-03-18T12:21:59.280Z,1.83
2023-03-18T12:24:48.549Z,2.97
2023-03-18T12:28:00.540Z,2.03
2023-03-18T12:31:00.764Z,1.90
2023-03-18T12:33:58.689Z,2.30
2023-03-18T12:37:15.598Z,1.83
2023-03-18T12:40:24.810Z,2.93
2023-03-18T12:43:13.757Z,2.33
2023-03-18T12:45:49.676Z,1.93
2023-03-18T12:48:42.414Z,2.70
2023-03-18T12:51:20.605Z,2.20
2023-03-18T12:53:58.612Z,2.43
2023-03-18T12:56:40.216Z,2.73
2023-03-18T12:59:18.632Z,2.00
2023-03-18T13:02:21.108Z,1.33
2023-03-18T13:04:59.932Z,1.60
2023-03-18T13:07:44.359Z,1.77
2023-03-18T13:10:24.580Z,1.50
2023-03-18T13:12:57.970Z,1.73
2023-03-18T13:15:45.583Z,1.07
2023-03-18T13:18:22.600Z,1.70
2023-03-18T13:20:53.829Z,1.57
2023-03-18T13:23:53.750Z,1.57
2023-03-18T13:26:40.457Z,1.47
2023-03-18T13:29:45.040Z,1.27
2023-03-18T13:32:34.446Z,1.70
2023-03-18T13:35:20.799Z,1.30
2023-03-18T13:38:08.879Z,1.23
2023-03-18T13:41:14.161Z,1.17
2023-03-18T13:43:49.455Z,1.10
2023-03-18T13:46:27.418Z,0.80
2023-03-18T13:49:04.936Z,1.07
2023-03-18T13:51:34.937Z,1.10
2023-03-18T13:54:09.068Z,1.27
2023-03-18T13:56:47.547Z,2.47
2023-03-18T13:59:37.907Z,1.27
2023-03-18T14:02:34.583Z,0.67
2023-03-18T14:05:02.577Z,1.03
2023-03-18T14:07:29.966Z,1.23
2023-03-18T14:10:18.333Z,1.20
2023-03-18T14:12:48.618Z,1.43
2023-03-18T14:15:15.965Z,1.07
2023-03-18T14:17:55.680Z,1.33
2023-03-18T14:20:40.297Z,1.27
2023-03-18T14:23:34.460Z,1.47
2023-03-18T14:26:16.970Z,0.80
2023-03-18T14:28:55.336Z,1.07
2023-03-18T14:31:39.518Z,1.17
2023-03-18T14:34:19.099Z,1.17
2023-03-18T14:36:55.826Z,1.67
2023-03-18T14:39:48.246Z,1.37
2023-03-18T14:43:00.225Z,1.37
2023-03-18T14:45:27.742Z,1.23
2023-03-18T14:47:58.451Z,1.87
2023-03-18T14:50:44.610Z,1.20
2023-03-18T14:53:29.700Z,1.17
2023-03-18T14:56:01.052Z,1.60
2023-03-18T14:58:28.994Z,1.23
2023-03-18T15:01:16.639Z,1.43
2023-03-18T15:03:50.005Z,1.37
2023-03-18T15:06:29.447Z,1.00
2023-03-18T15:09:09.816Z,1.10
2023-03-18T15:11:46.072Z,2.03
2023-03-18T15:14:24.129Z,1.03
2023-03-18T15:16:56.709Z,2.07
2023-03-18T15:19:25.850Z,1.37
2023-03-18T15:21:54.278Z,1.00
2023-03-18T15:24:26.122Z,1.30
2023-03-18T15:27:14.904Z,1.00
2023-03-18T15:29:53.453Z,1.37
2023-03-18T15:32:33.248Z,1.17
2023-03-18T15:35:28.902Z,0.87
2023-03-18T15:38:17.483Z,1.00
2023-03-18T15:40:51.051Z,1.30
2023-03-18T15:43:30.608Z,1.40
2023-03-18T15:46:08.118Z,1.13
2023-03-18T15:48:54.800Z,1.37
2023-03-18T15:51:40.669Z,1.50
2023-03-18T15:54:30.987Z,0.83
2023-03-18T15:57:10.369Z,1.63
2023-03-18T15:59:38.722Z,1.53
2023-03-18T16:02:17.500Z,1.90
2023-03-18T16:04:46.115Z,0.60
2023-03-18T16:07:23.237Z,1.00
2023-03-18T16:09:51.481Z,1.33
2023-03-18T16:12:22.769Z,1.77
2023-03-18T16:14:52.548Z,1.67
2023-03-18T16:17:22.307Z,0.67
2023-03-18T16:19:54.502Z,1.50
2023-03-18T16:22:22.317Z,0.90
2023-03-18T16:24:51.655Z,0.97
2023-03-18T16:27:35.556Z,1.63
2023-03-18T16:30:03.104Z,1.33
2023-03-18T16:32:31.365Z,1.27
2023-03-18T16:34:59.479Z,0.70
2023-03-18T16:37:27.927Z,1.27
2023-03-18T16:39:56.123Z,1.33
2023-03-18T16:42:27.513Z,1.80
2023-03-18T16:44:55.015Z,1.97
2023-03-18T16:47:29.060Z,1.40
2023-03-18T16:50:00.901Z,2.47
2023-03-18T16:52:40.739Z,1.87
2023-03-18T16:55:13.951Z,1.70
2023-03-18T16:57:58.065Z,1.57
2023-03-18T17:00:32.387Z,1.93
2023-03-18T17:03:01.446Z,1.77
2023-03-18T17:05:29.270Z,2.10
2023-03-18T17:07:59.057Z,2.27
2023-03-18T17:10:27.781Z,1.93
2023-03-18T17:13:05.970Z,2.10
2023-03-18T17:15:37.342Z,1.77
2023-03-18T17:18:07.798Z,2.33
2023-03-18T17:20:35.010Z,2.57
2023-03-18T17:23:04.365Z,1.87
2023-03-18T17:25:32.601Z,1.90
2023-03-18T17:28:06.273Z,1.70
2023-03-18T17:30:40.971Z,2.03
2023-03-18T17:33:26.083Z,2.50
2023-03-18T17:35:55.067Z,1.60
2023-03-18T17:38:22.629Z,2.10
2023-03-18T17:40:50.850Z,1.20
2023-03-18T17:43:26.127Z,2.13
2023-03-18T17:45:56.900Z,1.20
2023-03-18T17:48:36.758Z,1.83
2023-03-18T17:51:19.145Z,2.00
2023-03-18T17:54:10.828Z,1.60
2023-03-18T17:56:38.122Z,1.40
2023-03-18T17:59:15.181Z,1.60
2023-03-18T18:01:45.417Z,2.20
2023-03-18T18:04:22.828Z,1.53
2023-03-18T18:06:50.214Z,2.73
2023-03-18T18:09:19.418Z,1.93
2023-03-18T18:11:49.096Z,2.50
2023-03-18T18:14:31.595Z,2.40
2023-03-18T18:16:59.684Z,3.20
2023-03-18T18:19:27.131Z,3.10
2023-03-18T18:21:54.973Z,3.60
2023-03-18T18:24:31.083Z,2.70
2023-03-18T18:26:58.512Z,3.40
2023-03-18T18:29:29.592Z,3.30
2023-03-18T18:31:57.514Z,3.17
2023-03-18T18:34:24.839Z,3.63
2023-03-18T18:36:52.335Z,2.83
2023-03-18T18:39:21.181Z,2.33
2023-03-18T18:41:49.112Z,3.00
2023-03-18T18:44:16.582Z,3.03
2023-03-18T18:46:43.772Z,2.77
2023-03-18T18:49:24.797Z,3.23
2023-03-18T18:52:05.057Z,3.77
2023-03-18T18:54:32.326Z,2.50
2023-03-18T18:59:49.168Z,2.60
2023-03-18T19:02:36.313Z,2.87
2023-03-18T19:05:04.882Z,2.80
2023-03-18T19:07:33.782Z,2.87
2023-03-18T19:10:01.746Z,3.37
2023-03-18T19:12:29.091Z,2.47
2023-03-18T19:14:56.495Z,1.70
2023-03-18T19:17:24.430Z,2.27
2023-03-18T19:19:53.215Z,2.67
2023-03-18T19:22:25.876Z,3.27
2023-03-18T19:24:59.424Z,2.33
2023-03-18T19:27:33.186Z,4.10
2023-03-18T19:30:05.703Z,3.57
2023-03-18T19:32:33.002Z,3.23
2023-03-18T19:35:00.653Z,1.97
2023-03-18T19:37:32.754Z,2.10
2023-03-18T19:40:21.046Z,1.93
2023-03-18T19:42:48.305Z,2.90
2023-03-18T19:45:15.748Z,3.03
2023-03-18T19:47:43.485Z,2.90
2023-03-18T19:50:20.484Z,2.30
2023-03-18T19:52:47.933Z,3.37
2023-03-18T19:55:17.474Z,2.53
2023-03-18T19:57:48.805Z,3.03
2023-03-18T20:00:25.777Z,3.33
2023-03-18T20:02:54.363Z,2.30
2023-03-18T20:05:24.275Z,2.33
2023-03-18T20:07:52.357Z,2.77
2023-03-18T20:10:24.134Z,2.27
2023-03-18T20:12:54.867Z,2.23
2023-03-18T20:15:35.530Z,2.30
2023-03-18T20:18:02.983Z,4.23
2023-03-18T20:20:58.183Z,2.50
2023-03-18T20:23:28.557Z,2.53
2023-03-18T20:26:06.262Z,6.10
2023-03-18T20:28:33.388Z,6.03
2023-03-18T20:31:01.244Z,3.40
2023-03-18T20:33:28.742Z,2.60
2023-03-18T20:35:56.254Z,4.20
2023-03-18T20:38:43.155Z,5.90
2023-03-18T20:41:18.487Z,5.90
2023-03-18T20:43:51.346Z,2.37
2023-03-18T20:46:18.696Z,2.57
2023-03-18T20:48:49.548Z,2.60
2023-03-18T20:51:44.540Z,2.70
2023-03-18T20:54:17.880Z,2.00
2023-03-18T20:56:48.890Z,2.77
2023-03-18T20:59:16.199Z,2.93
2023-03-18T21:01:43.952Z,2.17
2023-03-18T21:04:16.723Z,3.03
2023-03-18T21:06:44.323Z,2.00
2023-03-18T21:09:13.342Z,2.27
2023-03-18T21:11:42.890Z,3.40
2023-03-18T21:14:16.020Z,3.00
2023-03-18T21:16:43.216Z,2.30
2023-03-18T21:19:11.316Z,3.47
2023-03-18T21:21:39.708Z,2.37
2023-03-18T21:24:28.581Z,2.83
2023-03-18T21:27:04.649Z,2.07
2023-03-18T21:29:35.896Z,2.90
2023-03-18T21:32:03.226Z,2.67
2023-03-18T21:34:30.607Z,1.53
2023-03-18T21:36:58.080Z,2.13
2023-03-18T21:39:36.037Z,2.00
2023-03-18T21:42:32.067Z,2.10
2023-03-18T21:44:59.364Z,3.73
2023-03-18T21:47:38.654Z,3.77
2023-03-18T21:52:59.608Z,2.37
2023-03-18T21:55:29.520Z,1.93
2023-03-18T21:57:57.120Z,1.87
2023-03-18T22:00:24.447Z,2.70
2023-03-18T22:02:52.016Z,1.90
2023-03-18T22:05:23.096Z,2.13
2023-03-18T22:07:51.933Z,2.47
2023-03-18T22:10:30.730Z,1.90
2023-03-18T22:12:58.408Z,2.13
2023-03-18T22:15:25.767Z,2.60
2023-03-18T22:17:53.196Z,2.83
2023-03-18T22:20:20.740Z,4.00
2023-03-18T22:22:48.017Z,3.30
2023-03-18T22:25:32.215Z,3.70
2023-03-18T22:28:00.617Z,2.87
2023-03-18T22:30:33.237Z,2.57
2023-03-18T22:33:03.969Z,2.63
2023-03-18T22:35:34.404Z,3.13
2023-03-18T22:38:01.964Z,2.40
2023-03-18T22:40:31.956Z,2.43
2023-03-18T22:43:01.694Z,3.23
2023-03-18T22:45:34.243Z,2.37
2023-03-18T22:48:23.007Z,2.03
2023-03-18T22:50:58.611Z,1.90
2023-03-18T22:53:39.788Z,2.13
2023-03-18T22:56:17.873Z,3.30
2023-03-18T22:58:45.589Z,1.87
2023-03-18T23:01:31.011Z,2.27
2023-03-18T23:03:59.135Z,1.97
2023-03-18T23:06:35.663Z,2.00
2023-03-18T23:09:05.620Z,2.03
2023-03-18T23:11:34.603Z,1.97
2023-03-18T23:14:04.540Z,2.73
2023-03-18T23:16:40.545Z,3.00
2023-03-18T23:19:11.128Z,2.27
2023-03-18T23:21:38.495Z,2.57
2023-03-18T23:24:08.941Z,2.73
2023-03-18T23:26:36.276Z,1.90
2023-03-18T23:29:03.502Z,2.07
2023-03-18T23:31:43.300Z,2.40
2023-03-18T23:34:13.409Z,2.57
2023-03-18T23:36:41.203Z,1.13
2023-03-18T23:39:25.711Z,1.47
2023-03-18T23:41:55.906Z,1.47
2023-03-18T23:44:23.300Z,1.47
2023-03-18T23:46:52.853Z,1.67
2023-03-18T23:49:28.681Z,3.67
2023-03-18T23:52:07.361Z,1.80
2023-03-18T23:57:19.099Z,1.33
2023-03-18T23:59:50.175Z,1.73
